Language: 


Des rapports , des résumés tant et plus, au choix de chacun....


Données statistiques de la station
Quotidien Rapport Février 20, 2017 Unités:  Anglais    Métrique   les deux
« Précédent Jour
Suivant Jour »
Quotidien Hebdomadaire Mensuel Annuel Actuel
  Haut: Bas: Moyen:
Température: 54 °F 47.1 °F 50 °F
Pt de rosée: 52.5 °F 45.9 °F 49.1 °F
Humidité: 98 % 95 % 97 %
Vitesse du vent: 23.5 mph 3.4 mph 10.3 mph
Rafales: 23.7 mph - -
Vent:- - WSW
Pression: 30.2 in 30 in -
Précipitation: 0 in    
Historical Graphs
 
 
Données statistiques pour Février 20, 2017
Heure Température Point de rosée Pression Vent Vitesse du vent Refales Humidité Pluie (taux horaire)
00:03 47.1 °F 45.9 °F 30.2 in WSW 5.4 mph 7.6 mph 95 % 0 in
00:08 47.1 °F 45.9 °F 30.2 in WSW 5.8 mph 7.6 mph 95 % 0 in
00:13 47.1 °F 45.9 °F 30.2 in SSW 3.4 mph 7.4 mph 95 % 0 in
00:18 47.1 °F 45.9 °F 30.2 in SW 4.3 mph 6.5 mph 95 % 0 in
00:23 47.1 °F 45.9 °F 30.2 in SW 6 mph 6 mph 95 % 0 in
00:28 47.3 °F 46.2 °F 30.2 in WSW 4.9 mph 6.5 mph 96 % 0 in
00:33 47.3 °F 46.2 °F 30.2 in WSW 3.8 mph 7.2 mph 96 % 0 in
00:38 47.3 °F 46.2 °F 30.2 in WSW 5.4 mph 7.2 mph 96 % 0 in
00:43 47.3 °F 46.2 °F 30.2 in SSW 4.9 mph 6.5 mph 96 % 0 in
00:48 47.3 °F 46.2 °F 30.2 in SW 5.6 mph 7.8 mph 96 % 0 in
00:53 47.3 °F 46.2 °F 30.2 in WSW 5.4 mph 7.8 mph 96 % 0 in
00:58 47.5 °F 46.4 °F 30.2 in WSW 5.8 mph 7.4 mph 96 % 0 in
01:03 47.5 °F 46.4 °F 30.2 in SSW 4.9 mph 6 mph 96 % 0 in
01:08 47.5 °F 46.4 °F 30.1 in SW 5.6 mph 6.5 mph 96 % 0 in
01:13 47.5 °F 46.4 °F 30.1 in WSW 4.5 mph 6.9 mph 96 % 0 in
01:18 47.7 °F 46.6 °F 30.1 in SW 6.5 mph 7.2 mph 96 % 0 in
01:23 47.7 °F 46.6 °F 30.1 in SW 5.8 mph 7.4 mph 96 % 0 in
01:28 47.7 °F 46.6 °F 30.1 in WSW 4.5 mph 7.4 mph 96 % 0 in
01:33 47.7 °F 46.6 °F 30.1 in WSW 4.7 mph 6.9 mph 96 % 0 in
01:38 47.7 °F 46.6 °F 30.1 in WSW 4.3 mph 6.5 mph 96 % 0 in
01:43 47.7 °F 46.6 °F 30.1 in WSW 4.7 mph 6.3 mph 96 % 0 in
01:48 47.7 °F 46.6 °F 30.1 in WSW 4.9 mph 6.3 mph 96 % 0 in
01:53 47.7 °F 46.6 °F 30.2 in SW 5.6 mph 7.4 mph 96 % 0 in
01:58 47.7 °F 46.6 °F 30.2 in WSW 4.9 mph 7.4 mph 96 % 0 in
02:03 47.5 °F 46.4 °F 30.2 in SW 6.3 mph 6.9 mph 96 % 0 in
02:08 47.5 °F 46.4 °F 30.2 in SW 5.8 mph 9.4 mph 96 % 0 in
02:13 47.5 °F 46.4 °F 30.2 in WSW 7.6 mph 9.4 mph 96 % 0 in
02:18 47.5 °F 46.4 °F 30.2 in WSW 6.3 mph 7.6 mph 96 % 0 in
02:23 47.5 °F 46.4 °F 30.2 in WSW 4.9 mph 6.5 mph 96 % 0 in
02:28 47.5 °F 46.8 °F 30.2 in SW 6.3 mph 7.6 mph 97 % 0 in
02:33 47.5 °F 46.8 °F 30.2 in WSW 4.7 mph 7.6 mph 97 % 0 in
02:39 47.5 °F 46.8 °F 30.2 in SSW 5.6 mph 7.2 mph 97 % 0 in
02:44 47.5 °F 46.8 °F 30.2 in SW 5.4 mph 7.2 mph 97 % 0 in
02:49 47.5 °F 46.8 °F 30.2 in SW 5.4 mph 6.5 mph 97 % 0 in
02:54 47.7 °F 46.9 °F 30.1 in SSW 4.9 mph 7.2 mph 97 % 0 in
02:59 47.7 °F 46.9 °F 30.1 in WSW 4.3 mph 7.2 mph 97 % 0 in
03:04 47.7 °F 46.9 °F 30.1 in WSW 6 mph 7.2 mph 97 % 0 in
03:09 47.7 °F 46.9 °F 30.1 in WSW 5.8 mph 8.5 mph 97 % 0 in
03:14 47.7 °F 46.9 °F 30.1 in WSW 6.3 mph 8.7 mph 97 % 0 in
03:19 47.8 °F 47.1 °F 30.1 in WSW 5.8 mph 8.7 mph 97 % 0 in
03:24 47.8 °F 47.1 °F 30.1 in SW 5.6 mph 8.5 mph 97 % 0 in
03:29 47.8 °F 47.1 °F 30.1 in SW 8.7 mph 8.7 mph 97 % 0 in
03:34 47.8 °F 47.1 °F 30.1 in WSW 6.5 mph 8.7 mph 97 % 0 in
03:39 47.8 °F 47.1 °F 30.1 in WSW 8.7 mph 8.7 mph 97 % 0 in
03:44 47.8 °F 47.1 °F 30.1 in WSW 7.6 mph 9.8 mph 97 % 0 in
03:49 47.8 °F 47.1 °F 30.1 in WSW 7.4 mph 10.1 mph 97 % 0 in
03:54 47.8 °F 47.1 °F 30.1 in WSW 7.2 mph 12.3 mph 97 % 0 in
03:59 47.8 °F 47.1 °F 30.1 in WSW 7.8 mph 12.3 mph 97 % 0 in
04:04 47.8 °F 47.1 °F 30.1 in WSW 11.4 mph 12.8 mph 97 % 0 in
04:09 47.8 °F 47.1 °F 30.1 in WSW 11.2 mph 12.8 mph 97 % 0 in
04:14 47.8 °F 47.1 °F 30.1 in West 7.8 mph 12.1 mph 97 % 0 in
04:19 47.8 °F 47.1 °F 30.1 in WSW 10.5 mph 11 mph 97 % 0 in
04:24 47.8 °F 47.1 °F 30.1 in West 7.4 mph 12.3 mph 97 % 0 in
04:29 47.7 °F 47.1 °F 30.1 in WSW 7.4 mph 12.3 mph 98 % 0 in
04:34 47.7 °F 47.1 °F 30.1 in WSW 8.5 mph 11 mph 98 % 0 in
04:39 47.7 °F 47.1 °F 30.1 in WSW 10.1 mph 11 mph 98 % 0 in
04:44 47.7 °F 47.1 °F 30.1 in SW 7.8 mph 10.1 mph 98 % 0 in
04:49 47.7 °F 47.1 °F 30.1 in WSW 6.3 mph 9.8 mph 98 % 0 in
04:54 47.7 °F 47.1 °F 30.1 in WSW 7.2 mph 9.6 mph 98 % 0 in
04:59 47.5 °F 46.9 °F 30.1 in SW 7.6 mph 9.8 mph 98 % 0 in
05:04 47.7 °F 47.1 °F 30.1 in WSW 8.5 mph 12.1 mph 98 % 0 in
05:09 47.7 °F 47.1 °F 30.1 in WSW 8.5 mph 12.5 mph 98 % 0 in
05:14 47.5 °F 46.9 °F 30.1 in WSW 5.6 mph 12.5 mph 98 % 0 in
05:19 47.5 °F 46.9 °F 30.1 in WSW 6 mph 9.6 mph 98 % 0 in
05:24 47.5 °F 46.9 °F 30.1 in WSW 7.6 mph 9.4 mph 98 % 0 in
05:29 47.5 °F 46.9 °F 30.1 in SW 7.8 mph 9.4 mph 98 % 0 in
05:34 47.5 °F 46.9 °F 30.1 in WSW 7.6 mph 9.2 mph 98 % 0 in
05:39 47.5 °F 46.9 °F 30.1 in WSW 10.5 mph 10.5 mph 98 % 0 in
05:44 47.5 °F 46.9 °F 30.1 in WSW 8.1 mph 10.5 mph 98 % 0 in
05:49 47.5 °F 46.9 °F 30.1 in WSW 7.6 mph 10.5 mph 98 % 0 in
05:54 47.5 °F 46.9 °F 30.1 in SSW 7.8 mph 11.9 mph 98 % 0 in
05:59 47.7 °F 47.1 °F 30.1 in SW 8.7 mph 11.9 mph 98 % 0 in
06:04 47.7 °F 47.1 °F 30.1 in WSW 5.8 mph 10.1 mph 98 % 0 in
06:09 47.7 °F 47.1 °F 30.1 in WSW 6.3 mph 10.5 mph 98 % 0 in
06:12 47.7 °F 47.1 °F 30.1 in WSW 7.6 mph 10.5 mph 98 % 0 in
06:17 47.7 °F 47.1 °F 30.1 in WSW 7.8 mph 8.5 mph 98 % 0 in
06:22 47.7 °F 47.1 °F 30.1 in WSW 4.9 mph 8.5 mph 98 % 0 in
06:27 47.5 °F 46.9 °F 30.1 in WSW 7.2 mph 8.5 mph 98 % 0 in
06:32 47.5 °F 46.9 °F 30.1 in SSW 8.1 mph 8.1 mph 98 % 0 in
06:37 47.5 °F 46.9 °F 30.1 in SW 5.6 mph 8.1 mph 98 % 0 in
06:42 47.5 °F 46.9 °F 30.1 in SSW 7.8 mph 8.7 mph 98 % 0 in
06:47 47.7 °F 47.1 °F 30.1 in SW 6.5 mph 8.7 mph 98 % 0 in
06:52 47.7 °F 47.1 °F 30.1 in SSW 6 mph 8.1 mph 98 % 0 in
06:57 47.7 °F 47.1 °F 30.1 in SSW 4.9 mph 7.6 mph 98 % 0 in
06:59 47.7 °F 47.1 °F 30.1 in WSW 5.4 mph 7.4 mph 98 % 0 in
07:04 47.7 °F 47.1 °F 30.1 in SW 5.8 mph 8.1 mph 98 % 0 in
07:09 47.7 °F 47.1 °F 30.1 in SW 5.8 mph 8.1 mph 98 % 0 in
07:14 47.8 °F 47.3 °F 30.1 in SW 4.7 mph 6.5 mph 98 % 0 in
07:19 47.8 °F 47.3 °F 30.1 in WSW 4.9 mph 7.2 mph 98 % 0 in
07:24 47.8 °F 47.3 °F 30.1 in WSW 4.5 mph 9.6 mph 98 % 0 in
07:29 47.8 °F 47.3 °F 30.1 in SW 7.2 mph 9.8 mph 98 % 0 in
07:34 47.8 °F 47.3 °F 30.1 in SW 4.9 mph 9.8 mph 98 % 0 in
07:39 47.8 °F 47.3 °F 30.1 in WSW 8.1 mph 8.9 mph 98 % 0 in
07:44 47.8 °F 47.3 °F 30.1 in WSW 7.6 mph 8.9 mph 98 % 0 in
07:49 47.8 °F 47.3 °F 30.1 in WSW 7.8 mph 10.7 mph 98 % 0 in
07:54 47.8 °F 47.3 °F 30.1 in SSW 6.5 mph 10.7 mph 98 % 0 in
07:59 47.8 °F 47.3 °F 30.1 in WSW 8.1 mph 10.3 mph 98 % 0 in
08:04 48 °F 47.5 °F 30.1 in WSW 7.8 mph 10.3 mph 98 % 0 in
08:09 48 °F 47.5 °F 30.1 in WSW 8.5 mph 10.5 mph 98 % 0 in
08:14 48 °F 47.5 °F 30.1 in WSW 6.5 mph 12.3 mph 98 % 0 in
08:19 48.2 °F 47.7 °F 30.1 in WSW 10.1 mph 12.3 mph 98 % 0 in
08:24 48.2 °F 47.7 °F 30.1 in WSW 9.8 mph 12.8 mph 98 % 0 in
08:29 48.4 °F 47.8 °F 30.1 in WSW 10.5 mph 12.8 mph 98 % 0 in
08:34 48.4 °F 47.8 °F 30.1 in WSW 7.2 mph 11.2 mph 98 % 0 in
08:39 48.4 °F 47.8 °F 30.1 in WSW 10.7 mph 12.3 mph 98 % 0 in
08:44 48.4 °F 47.8 °F 30.1 in WSW 7.4 mph 12.8 mph 98 % 0 in
08:49 48.4 °F 47.8 °F 30.1 in WSW 10.7 mph 12.8 mph 98 % 0 in
08:54 48.6 °F 48 °F 30.1 in WSW 10.3 mph 12.8 mph 98 % 0 in
08:59 48.6 °F 48 °F 30.1 in WSW 9.8 mph 13.2 mph 98 % 0 in
09:04 48.7 °F 48.2 °F 30.1 in WSW 9.6 mph 13.4 mph 98 % 0 in
09:09 48.7 °F 48.2 °F 30.1 in WSW 8.1 mph 13.4 mph 98 % 0 in
09:14 48.7 °F 48.2 °F 30.1 in WSW 9.6 mph 13 mph 98 % 0 in
09:19 48.9 °F 48.4 °F 30.1 in WSW 7.8 mph 13 mph 98 % 0 in
09:24 49.1 °F 48.6 °F 30.1 in WSW 8.7 mph 13 mph 98 % 0 in
09:29 49.1 °F 48.6 °F 30.1 in WSW 7.6 mph 13 mph 98 % 0 in
09:34 49.1 °F 48.6 °F 30.1 in WSW 12.1 mph 12.3 mph 98 % 0 in
09:39 49.3 °F 48.7 °F 30.1 in WSW 8.1 mph 13.6 mph 98 % 0 in
09:44 49.3 °F 48.7 °F 30.1 in West 8.9 mph 14.5 mph 98 % 0 in
09:49 49.5 °F 48.9 °F 30.1 in West 12.3 mph 14.5 mph 98 % 0 in
09:54 49.5 °F 48.9 °F 30.1 in WSW 13.2 mph 13.2 mph 98 % 0 in
09:59 49.6 °F 49.1 °F 30.1 in WSW 8.1 mph 15.2 mph 98 % 0 in
10:04 49.6 °F 49.1 °F 30.1 in WSW 10.7 mph 15.2 mph 98 % 0 in
10:09 49.8 °F 49.3 °F 30.1 in WSW 8.1 mph 13.6 mph 98 % 0 in
10:14 49.8 °F 49.3 °F 30.1 in WSW 12.8 mph 13.6 mph 98 % 0 in
10:19 49.8 °F 49.3 °F 30.1 in WSW 8.1 mph 13.4 mph 98 % 0 in
10:24 50 °F 49.5 °F 30.1 in WSW 8.5 mph 14.8 mph 98 % 0 in
10:29 50.2 °F 49.6 °F 30.1 in WSW 15.4 mph 19.5 mph 98 % 0 in
10:34 50.2 °F 49.6 °F 30.1 in WSW 11 mph 19.5 mph 98 % 0 in
10:39 50.2 °F 49.6 °F 30.1 in WSW 14.3 mph 17.7 mph 98 % 0 in
10:44 50.2 °F 49.6 °F 30.1 in West 13.2 mph 15.7 mph 98 % 0 in
10:49 50.2 °F 49.6 °F 30.1 in WSW 10.3 mph 15.7 mph 98 % 0 in
10:54 50.4 °F 49.8 °F 30.1 in WSW 14.8 mph 17 mph 98 % 0 in
10:59 50.4 °F 49.8 °F 30.1 in WSW 14.3 mph 18.6 mph 98 % 0 in
11:04 50.4 °F 49.8 °F 30.1 in West 9.8 mph 18.6 mph 98 % 0 in
11:09 50.4 °F 49.8 °F 30.1 in West 8.7 mph 18.6 mph 98 % 0 in
11:14 50.4 °F 49.8 °F 30.1 in West 13.2 mph 18.6 mph 98 % 0 in
11:19 50.4 °F 49.5 °F 30.1 in WSW 14.5 mph 15.2 mph 97 % 0 in
11:24 50.4 °F 49.5 °F 30.1 in West 8.1 mph 15.4 mph 97 % 0 in
11:29 50.5 °F 49.6 °F 30.1 in West 10.5 mph 15.4 mph 97 % 0 in
11:34 50.5 °F 49.6 °F 30.1 in WSW 10.1 mph 20.6 mph 97 % 0 in
11:39 50.5 °F 49.6 °F 30.1 in WSW 10.7 mph 20.6 mph 97 % 0 in
11:44 50.7 °F 49.8 °F 30.1 in WSW 10.7 mph 12.8 mph 97 % 0 in
11:49 50.7 °F 49.8 °F 30.1 in West 12.8 mph 14.1 mph 97 % 0 in
11:54 50.9 °F 50.2 °F 30.1 in WSW 10.1 mph 14.5 mph 97 % 0 in
11:59 51.1 °F 50.2 °F 30.1 in West 11.9 mph 14.5 mph 97 % 0 in
12:04 51.1 °F 50.2 °F 30.1 in West 10.7 mph 16.3 mph 97 % 0 in
12:09 51.1 °F 50.2 °F 30.1 in WSW 14.8 mph 16.3 mph 97 % 0 in
12:14 51.3 °F 50.4 °F 30.1 in West 10.3 mph 17.4 mph 97 % 0 in
12:19 51.4 °F 50.5 °F 30.1 in WSW 10.7 mph 17.7 mph 97 % 0 in
12:24 51.4 °F 50.5 °F 30.1 in WSW 12.8 mph 17.7 mph 97 % 0 in
12:29 51.6 °F 50.7 °F 30.1 in West 7.8 mph 15.4 mph 97 % 0 in
12:34 51.8 °F 50.9 °F 30.1 in West 15.9 mph 15.9 mph 97 % 0 in
12:39 51.8 °F 50.9 °F 30.1 in West 13.2 mph 15.9 mph 97 % 0 in
12:44 51.6 °F 50.7 °F 30.1 in WSW 17.4 mph 19.2 mph 97 % 0 in
12:49 51.6 °F 50.7 °F 30.1 in West 13.9 mph 19.2 mph 97 % 0 in
12:54 51.6 °F 50.7 °F 30.1 in West 12.5 mph 19.2 mph 97 % 0 in
12:59 51.6 °F 50.5 °F 30.1 in West 12.5 mph 19.2 mph 96 % 0 in
13:04 51.6 °F 50.5 °F 30.1 in WSW 10.5 mph 17.7 mph 96 % 0 in
13:09 51.6 °F 50.5 °F 30.1 in WSW 15.2 mph 17.7 mph 96 % 0 in
13:14 51.6 °F 50.5 °F 30.1 in WSW 12.8 mph 17.7 mph 96 % 0 in
13:19 51.8 °F 50.7 °F 30.1 in WSW 12.8 mph 16.6 mph 96 % 0 in
13:24 52 °F 50.7 °F 30.1 in West 15.2 mph 17.7 mph 96 % 0 in
13:29 52 °F 50.7 °F 30.1 in WSW 18.6 mph 18.6 mph 96 % 0 in
13:34 52.2 °F 51.1 °F 30.1 in West 14.8 mph 18.6 mph 96 % 0 in
13:39 52.2 °F 51.1 °F 30 in WSW 15.2 mph 17.7 mph 96 % 0 in
13:44 52.3 °F 51.3 °F 30 in West 14.8 mph 17.7 mph 96 % 0 in
13:49 52.3 °F 51.3 °F 30 in West 13.6 mph 19 mph 96 % 0 in
13:54 52.3 °F 51.3 °F 30 in WSW 12.5 mph 19 mph 96 % 0 in
13:59 52.5 °F 51.4 °F 30 in WSW 12.8 mph 18.8 mph 96 % 0 in
14:04 52.5 °F 51.4 °F 30 in WSW 15.2 mph 17.7 mph 96 % 0 in
14:09 52.5 °F 51.4 °F 30 in West 10.3 mph 17.4 mph 96 % 0 in
14:14 52.9 °F 51.6 °F 30 in WSW 10.1 mph 17.4 mph 96 % 0 in
14:19 53.1 °F 52 °F 30 in WSW 12.5 mph 17.7 mph 96 % 0 in
14:24 53.2 °F 51.8 °F 30 in WSW 14.3 mph 18.6 mph 95 % 0 in
14:29 53.2 °F 51.8 °F 30 in WSW 11.4 mph 18.6 mph 95 % 0 in
14:34 53.2 °F 51.8 °F 30 in SSW 18.6 mph 19.7 mph 95 % 0 in
14:39 53.2 °F 51.8 °F 30 in WSW 17.7 mph 19.7 mph 95 % 0 in
14:44 53.2 °F 51.8 °F 30 in WSW 16.1 mph 19.7 mph 95 % 0 in
14:49 53.2 °F 52 °F 30 in SW 9.4 mph 17.7 mph 95 % 0 in
14:54 53.2 °F 52 °F 30 in WSW 11.2 mph 16.1 mph 95 % 0 in
15:00 53.2 °F 52 °F 30 in WSW 13 mph 15.4 mph 95 % 0 in
15:05 53.2 °F 52 °F 30 in West 17 mph 19.9 mph 95 % 0 in
15:10 53.2 °F 52 °F 30 in WSW 12.3 mph 19.9 mph 95 % 0 in
15:15 53.2 °F 52 °F 30 in WSW 13.2 mph 17.2 mph 95 % 0 in
15:20 53.2 °F 52 °F 30 in WSW 8.5 mph 14.8 mph 95 % 0 in
15:25 53.4 °F 52.2 °F 30 in WSW 9.6 mph 13.2 mph 95 % 0 in
15:30 53.8 °F 52.3 °F 30 in WSW 10.7 mph 15.2 mph 95 % 0 in
15:35 54 °F 52.5 °F 30 in West 8.1 mph 15.4 mph 95 % 0 in
15:40 54 °F 52.5 °F 30 in WSW 13.2 mph 15.4 mph 95 % 0 in
15:45 54 °F 52.5 °F 30 in West 11 mph 17 mph 95 % 0 in
15:50 54 °F 52.5 °F 30 in WSW 14.5 mph 17 mph 95 % 0 in
15:55 53.8 °F 52.3 °F 30 in West 8.1 mph 15.4 mph 95 % 0 in
16:00 53.2 °F 52 °F 30 in West 10.1 mph 19 mph 95 % 0 in
16:05 53.2 °F 52 °F 30 in WSW 10.5 mph 19 mph 95 % 0 in
16:10 53.2 °F 51.8 °F 30 in WSW 12.8 mph 17.2 mph 95 % 0 in
16:15 53.2 °F 51.8 °F 30 in West 12.8 mph 17.7 mph 95 % 0 in
16:20 53.2 °F 51.8 °F 30 in WSW 10.1 mph 17.7 mph 95 % 0 in
16:25 53.2 °F 52 °F 30 in WSW 12.8 mph 15.7 mph 95 % 0 in
16:30 53.2 °F 52 °F 30 in West 13.2 mph 15.4 mph 95 % 0 in
16:35 53.2 °F 52 °F 30 in West 15.2 mph 17.2 mph 95 % 0 in
16:40 53.2 °F 52 °F 30 in West 11 mph 17.2 mph 95 % 0 in
16:45 53.2 °F 52 °F 30 in WSW 15.2 mph 16.6 mph 95 % 0 in
16:50 53.1 °F 52 °F 30 in West 21.3 mph 23 mph 96 % 0 in
16:55 52.9 °F 51.4 °F 30 in West 17.7 mph 23 mph 95 % 0 in
17:00 52.5 °F 51.3 °F 30 in West 23.5 mph 23.5 mph 95 % 0 in
17:05 52.5 °F 51.3 °F 30 in WSW 19 mph 23.7 mph 95 % 0 in
17:10 52.3 °F 51.3 °F 30 in West 12.5 mph 23.7 mph 96 % 0 in
17:15 52.2 °F 51.1 °F 30 in West 13.4 mph 23.3 mph 96 % 0 in
17:20 52.2 °F 51.1 °F 30 in West 16.1 mph 18.6 mph 96 % 0 in
17:25 52 °F 50.7 °F 30 in West 12.5 mph 17.7 mph 96 % 0 in
17:30 52 °F 50.7 °F 30 in WSW 13.4 mph 16.1 mph 96 % 0 in
17:35 51.8 °F 50.7 °F 30 in WSW 12.5 mph 16.1 mph 96 % 0 in
17:40 51.8 °F 50.7 °F 30 in WSW 10.5 mph 16.1 mph 96 % 0 in
17:45 51.8 °F 50.7 °F 30 in WSW 10.1 mph 15.4 mph 96 % 0 in
17:50 51.8 °F 50.7 °F 30 in WSW 10.3 mph 13 mph 96 % 0 in
17:55 51.8 °F 50.7 °F 30 in WSW 10.7 mph 13.6 mph 96 % 0 in
18:00 51.6 °F 50.5 °F 30 in WSW 12.8 mph 15.4 mph 96 % 0 in
18:05 51.6 °F 50.5 °F 30 in West 17.4 mph 17.4 mph 96 % 0 in
18:10 51.8 °F 50.7 °F 30 in WSW 14.8 mph 17.4 mph 96 % 0 in
18:15 51.8 °F 50.7 °F 30 in WSW 11 mph 17.4 mph 96 % 0 in
18:20 51.8 °F 50.7 °F 30 in West 15.7 mph 17.4 mph 96 % 0 in
18:25 51.8 °F 50.7 °F 30 in WSW 13.2 mph 18.1 mph 96 % 0 in
18:30 51.8 °F 50.7 °F 30 in West 13.9 mph 18.1 mph 96 % 0 in
18:35 51.8 °F 50.7 °F 30 in WSW 10.7 mph 18.6 mph 96 % 0 in
18:40 51.6 °F 50.5 °F 30 in WSW 11 mph 18.6 mph 96 % 0 in
18:45 51.6 °F 50.5 °F 30 in WSW 10.1 mph 15.2 mph 96 % 0 in
18:50 51.4 °F 50.4 °F 30 in WSW 14.1 mph 17.7 mph 96 % 0 in
18:55 51.4 °F 50.4 °F 30 in WSW 14.3 mph 17.7 mph 96 % 0 in
19:00 51.3 °F 50.2 °F 30 in West 14.3 mph 17.7 mph 96 % 0 in
19:05 51.3 °F 50.2 °F 30 in WSW 12.5 mph 17.9 mph 96 % 0 in
19:10 51.3 °F 50.2 °F 30 in WSW 14.8 mph 17.9 mph 96 % 0 in
19:15 51.1 °F 50 °F 30 in WSW 15.2 mph 17.4 mph 96 % 0 in
19:20 50.9 °F 49.8 °F 30 in WSW 14.5 mph 16.6 mph 96 % 0 in
19:25 50.9 °F 49.8 °F 30 in WSW 18.6 mph 18.6 mph 96 % 0 in
19:30 50.9 °F 49.8 °F 30 in WSW 12.8 mph 18.6 mph 96 % 0 in
19:35 50.7 °F 49.6 °F 30 in WSW 11 mph 17.7 mph 96 % 0 in
19:40 50.7 °F 49.6 °F 30 in WSW 12.8 mph 17.7 mph 96 % 0 in
19:45 50.9 °F 50.2 °F 30 in WSW 15.2 mph 18.6 mph 97 % 0 in
19:50 50.9 °F 50.2 °F 30 in WSW 11 mph 18.6 mph 97 % 0 in
19:55 50.7 °F 49.8 °F 30 in WSW 12.1 mph 18.6 mph 97 % 0 in
20:00 50.7 °F 49.8 °F 30 in WSW 12.8 mph 18.6 mph 97 % 0 in
20:05 50.7 °F 49.8 °F 30 in West 14.8 mph 18.8 mph 97 % 0 in
20:10 50.7 °F 49.8 °F 30 in WSW 10.7 mph 18.8 mph 97 % 0 in
20:15 50.7 °F 49.8 °F 30 in West 12.5 mph 17.7 mph 97 % 0 in
20:20 50.7 °F 49.8 °F 30 in WSW 9.8 mph 15.4 mph 97 % 0 in
20:25 50.7 °F 49.8 °F 30.1 in WSW 11 mph 15.4 mph 97 % 0 in
20:30 50.7 °F 49.8 °F 30.1 in West 13 mph 17 mph 97 % 0 in
20:35 50.9 °F 50.2 °F 30.1 in WSW 11.4 mph 17 mph 97 % 0 in
20:40 50.9 °F 50.2 °F 30 in WSW 13 mph 16.8 mph 97 % 0 in
20:45 50.9 °F 50.2 °F 30 in West 16.6 mph 16.6 mph 97 % 0 in
20:50 50.9 °F 50.2 °F 30 in West 11 mph 19.9 mph 97 % 0 in
20:55 50.9 °F 50.2 °F 30 in WSW 12.8 mph 19.9 mph 97 % 0 in
21:00 50.9 °F 50.2 °F 30 in West 11 mph 17.7 mph 97 % 0 in
21:05 50.9 °F 50.2 °F 30 in WSW 19.5 mph 19.5 mph 97 % 0 in
21:10 50.9 °F 50.2 °F 30 in WSW 13 mph 19.5 mph 97 % 0 in
21:15 50.9 °F 50.2 °F 30 in WSW 15.2 mph 19.5 mph 97 % 0 in
21:20 50.9 °F 50.2 °F 30 in West 13.6 mph 15.4 mph 97 % 0 in
21:25 50.9 °F 50.2 °F 30 in WSW 13.2 mph 17.9 mph 97 % 0 in
21:30 50.9 °F 50.2 °F 30 in WSW 11 mph 17.9 mph 97 % 0 in
21:35 50.9 °F 50.2 °F 30 in West 11 mph 17.7 mph 97 % 0 in
21:40 50.9 °F 50.2 °F 30 in West 14.5 mph 17.7 mph 97 % 0 in
21:45 50.9 °F 50.2 °F 30 in West 9.6 mph 15.4 mph 97 % 0 in
21:50 50.9 °F 50.2 °F 30 in SW 8.7 mph 15.4 mph 97 % 0 in
21:55 50.9 °F 50.2 °F 30 in West 10.1 mph 18.1 mph 97 % 0 in
22:00 50.9 °F 50.2 °F 30 in West 16.8 mph 18.1 mph 97 % 0 in
22:05 50.9 °F 50.2 °F 30 in WSW 10.7 mph 17.4 mph 97 % 0 in
22:10 50.9 °F 50.2 °F 30 in WSW 10.3 mph 17.7 mph 97 % 0 in
22:15 50.9 °F 50.2 °F 30 in WSW 12.1 mph 17.7 mph 97 % 0 in
22:20 50.7 °F 49.8 °F 30 in West 9.8 mph 14.5 mph 97 % 0 in
22:25 50.7 °F 49.8 °F 30 in WSW 10.3 mph 14.5 mph 97 % 0 in
22:30 50.7 °F 49.8 °F 30 in West 10.7 mph 15.4 mph 97 % 0 in
22:35 50.7 °F 49.8 °F 30 in West 10.1 mph 15.9 mph 97 % 0 in
22:40 50.7 °F 49.8 °F 30 in West 12.8 mph 15.9 mph 97 % 0 in
22:45 50.7 °F 49.8 °F 30 in WSW 12.8 mph 14.3 mph 97 % 0 in
22:50 50.5 °F 49.6 °F 30 in WSW 12.8 mph 13.4 mph 97 % 0 in
22:55 50.5 °F 49.6 °F 30 in West 13 mph 15.4 mph 97 % 0 in
23:00 50.5 °F 49.6 °F 30 in West 10.5 mph 15.4 mph 97 % 0 in
23:05 50.5 °F 49.6 °F 30 in WSW 12.5 mph 15.2 mph 97 % 0 in
23:10 50.5 °F 49.6 °F 30 in West 6 mph 15.2 mph 97 % 0 in
23:15 50.7 °F 49.8 °F 30 in West 12.5 mph 15.4 mph 97 % 0 in
23:20 50.7 °F 49.8 °F 30 in West 13 mph 15.7 mph 97 % 0 in
23:25 50.7 °F 49.8 °F 30 in WSW 11 mph 15.7 mph 97 % 0 in
23:30 50.7 °F 49.8 °F 30 in WSW 11.4 mph 15.7 mph 97 % 0 in
23:36 50.7 °F 49.8 °F 30 in WSW 10.3 mph 14.8 mph 97 % 0 in
23:41 50.7 °F 49.8 °F 30 in West 11 mph 14.8 mph 97 % 0 in
23:46 50.7 °F 49.8 °F 30 in West 15.4 mph 15.4 mph 97 % 0 in
23:51 50.7 °F 49.8 °F 30 in WSW 7.4 mph 15.4 mph 97 % 0 in
23:56 50.7 °F 49.8 °F 30 in West 8.7 mph 16.1 mph 97 % 0 in
Le Gheer Warneton
Courtoisie de Weather Underground - 2.5 mb

Mise a jour : 17-12-17 03:27:12
Généré par Cumulus 1.9.4 (1099)